עמוד ראשי
METAR-TAF:

METAR-TAF

שדות תעופה :

מנסניו, קובה

קו רוחב: 20-20N, קו אורך: 077-07W, גובה: 60מטר

METAR: חסר

זמן: 21:39 (01:39 UTC)

תחזית

הדו"ח נערך לפני 14 שעות ו 39דקות, בשעה 11:00 UTC
תחזית בתוקף מ 12 ב 12 UTC עד 13 ב 00 UTC
רוח 4קשר עם כיוונים משתנים
ראות: 9000מטר
עננים פזורים בגובה 2000רגל

TAF: MUMZ 121100Z 1212/1300 VRB04KT 9000 SCT020

תצפיות ותחזיות מזג אוויר לגבי יותר מ- 4,000 שדות תעופה ברחבי העולם. דוחות METAR ו- TAF.

התחנות הזמינות מסומנות בנקודות צהובות ואדומות על גבי המפה.

העבר את העכבר לנקודה הצבעונית על מנת לראות את שם התחנה.

לאחר מכן, לחץ כדי לראות את תוכן ואת תחזיות מזג האוויר.

כדי לשנות את המפה: לחץ על הכפתורים הירוקים עם הפלוס השחור כדי להתקרב; על הכפתור הירוק עם המקף כדי להתרחק; או בחיצים הירוקים למפות סמוכות.


METAR-TAF: